Before Takeoff Flight?!

LUXURY FLIGHT

03-6423-7371

羽田本店:東京都大田区羽田5-11-1
営業時間:10:00~20:00
定休日:毎週 月曜日
セントレア店:愛知県常滑市セントレア1-1
営業時間:10:00~20:00 年中無休

lv

Before Takeoff Flight?!

STAFF BLOG

2019/11/08 Before Takeoff Flight?!

中部より、こんばんはーーー

 

RJGG 080700Z 31017KT 9999 FEW030 17/05 Q1015 NOSIG

 

本日は、無料抽選に当選された、長野と富山からお越しのYさまペア

 

体験前にお話を伺うと、なんと成田発アメリカ行の飛行機が連日のキャンセルになり、
急遽、中部からアメリカ・デトロイトへ変更されていらっしゃったとのこと
フットワークが巻雲くらい軽~~~〜い!

 

その出発前、飛行機好きなお二人がフライト オブ ドリームスへ!
「事前予約できなかったけれど、飛行機に乗る前に、飛行機を飛ばせたらいいなぁ♪」というノリで、

セントレア店の無料抽選にご参加!
その結果、、、とてつもない高倍率の中、ご当選されました

 

フライトシミュレーターは初めて!
それでも、不安は1ミリもなく、ワクワクが止まらないご様子で、
キャプテンシートに座っただけで、うぉーーーー

離陸して、わあああああ〜〜〜

 

そこから、空から名古屋市をくるーっと観光♪

さすが飛行機好きでフットワークが軽い方は、飲み込みが早さが違います!

 

セントレアに戻る頃には、真剣モードに!
アプローチとランディングも綺麗にスムーズに決めてくださいました!!!

 

 

bd729d8c-521c-4f01-943d-162a1aba8fbc

 

成田発のキャンセルのおかげで、787を体験できてラッキー!とお喜び頂いて、

デトロイトへ向かわれました。

 

ご出国前に、フライトシミュレーターをご利用くださり、誠にありがとうございました!

 

 

セントレア店は、中部国際空港の複合商業施設フライトオブドリームス内にございますため、
日本全国のみならず、世界中のお客様にお越し頂いております。

 

遠方の方も、中部国際空港からご出発やご到着の際には、

ぜひ弊社フライトシミュレーターで、旅客機の操縦をご体験いただけましたら幸いでーーーす!!

 

 

 

いつもブログを読んでくださり、誠にありがとうございます!

 

 

 

「感謝」

TOP